createdAt,value
2023-03-03T00:01:08.225Z,59.25
2023-03-03T00:03:36.359Z,58.95
2023-03-03T00:06:06.323Z,58.69
2023-03-03T00:08:34.428Z,59.08
2023-03-03T00:11:06.237Z,59.06
2023-03-03T00:13:41.398Z,59.37
2023-03-03T00:16:17.062Z,59.83
2023-03-03T00:18:47.261Z,58.80
2023-03-03T00:21:29.513Z,59.45
2023-03-03T00:24:18.834Z,58.91
2023-03-03T00:26:50.886Z,58.58
2023-03-03T00:29:30.803Z,59.18
2023-03-03T00:32:19.365Z,58.77
2023-03-03T00:34:48.990Z,58.72
2023-03-03T00:37:29.225Z,58.46
2023-03-03T00:40:15.248Z,57.94
2023-03-03T00:42:50.239Z,58.18
2023-03-03T00:45:28.348Z,58.07
2023-03-03T00:47:57.418Z,58.02
2023-03-03T00:50:29.763Z,58.33
2023-03-03T00:53:05.468Z,57.66
2023-03-03T00:55:35.314Z,57.61
2023-03-03T00:58:06.024Z,57.62
2023-03-03T01:00:39.908Z,57.38
2023-03-03T01:03:17.200Z,57.51
2023-03-03T01:05:45.934Z,57.69
2023-03-03T01:08:14.952Z,57.41
2023-03-03T01:10:47.417Z,57.16
2023-03-03T01:13:16.874Z,56.85
2023-03-03T01:15:46.264Z,56.82
2023-03-03T01:18:15.601Z,56.79
2023-03-03T01:20:44.421Z,56.61
2023-03-03T01:23:13.760Z,57.05
2023-03-03T01:25:44.849Z,57.30
2023-03-03T01:28:13.207Z,57.90
2023-03-03T01:30:42.724Z,56.71
2023-03-03T01:33:11.126Z,56.82
2023-03-03T01:35:41.099Z,57.40
2023-03-03T01:38:09.403Z,57.88
2023-03-03T01:40:37.860Z,57.46
2023-03-03T01:43:06.608Z,57.71
2023-03-03T01:46:14.924Z,58.05
2023-03-03T01:48:45.420Z,57.12
2023-03-03T01:51:21.792Z,56.87
2023-03-03T01:53:52.981Z,57.96
2023-03-03T01:56:21.861Z,56.98
2023-03-03T01:58:54.519Z,57.00
2023-03-03T02:01:29.088Z,56.94
2023-03-03T02:04:01.210Z,56.58
2023-03-03T02:06:34.532Z,56.09
2023-03-03T02:09:09.018Z,57.21
2023-03-03T02:11:39.288Z,56.86
2023-03-03T02:14:07.393Z,56.86
2023-03-03T02:16:37.126Z,56.65
2023-03-03T02:19:08.152Z,56.59
2023-03-03T02:21:36.336Z,57.43
2023-03-03T02:24:15.149Z,56.87
2023-03-03T02:26:46.632Z,55.98
2023-03-03T02:29:14.877Z,55.92
2023-03-03T02:31:43.993Z,56.78
2023-03-03T02:34:12.562Z,56.95
2023-03-03T02:36:42.367Z,55.88
2023-03-03T02:39:13.694Z,56.08
2023-03-03T02:41:48.322Z,57.37
2023-03-03T02:44:18.329Z,56.73
2023-03-03T02:46:48.633Z,57.05
2023-03-03T02:49:18.890Z,56.64
2023-03-03T02:51:46.945Z,56.87
2023-03-03T02:54:16.989Z,56.96
2023-03-03T02:56:46.539Z,57.56
2023-03-03T02:59:15.107Z,57.58
2023-03-03T03:01:49.098Z,56.88
2023-03-03T03:04:21.789Z,56.96
2023-03-03T03:06:52.432Z,56.94
2023-03-03T03:09:22.272Z,56.68
2023-03-03T03:11:54.378Z,56.54
2023-03-03T03:14:26.126Z,56.16
2023-03-03T03:16:56.366Z,56.36
2023-03-03T03:19:24.515Z,56.28
2023-03-03T03:21:52.934Z,56.12
2023-03-03T03:24:21.785Z,56.74
2023-03-03T03:26:58.244Z,56.18
2023-03-03T03:29:29.199Z,56.89
2023-03-03T03:31:57.934Z,55.94
2023-03-03T03:34:26.348Z,56.32
2023-03-03T03:36:56.280Z,56.12
2023-03-03T03:39:27.023Z,55.85
2023-03-03T03:41:58.430Z,56.52
2023-03-03T03:44:26.863Z,56.61
2023-03-03T03:46:56.248Z,56.19
2023-03-03T03:49:25.212Z,55.92
2023-03-03T03:51:56.526Z,56.31
2023-03-03T03:54:28.252Z,55.97
2023-03-03T03:56:58.452Z,55.56
2023-03-03T03:59:28.382Z,55.35
2023-03-03T04:01:56.718Z,54.85
2023-03-03T04:04:26.266Z,55.05
2023-03-03T04:06:55.280Z,55.24
2023-03-03T04:09:23.520Z,55.58
2023-03-03T04:11:51.905Z,55.24
2023-03-03T04:14:23.481Z,55.32
2023-03-03T04:16:52.347Z,55.15
2023-03-03T04:19:20.777Z,55.42
2023-03-03T04:21:52.111Z,55.84
2023-03-03T04:24:20.492Z,55.84
2023-03-03T04:26:51.998Z,55.82
2023-03-03T04:29:20.288Z,55.42
2023-03-03T04:31:50.440Z,55.15
2023-03-03T04:34:19.892Z,55.56
2023-03-03T04:36:48.493Z,55.57
2023-03-03T04:39:17.064Z,55.19
2023-03-03T04:41:45.695Z,55.09
2023-03-03T04:44:13.637Z,54.67
2023-03-03T04:46:41.643Z,54.84
2023-03-03T04:49:12.556Z,54.63
2023-03-03T04:51:41.916Z,55.43
2023-03-03T04:54:10.728Z,55.87
2023-03-03T04:56:39.349Z,55.71
2023-03-03T04:59:08.565Z,55.29
2023-03-03T05:01:36.957Z,55.87
2023-03-03T05:04:05.676Z,55.42
2023-03-03T05:06:35.252Z,55.97
2023-03-03T05:09:04.288Z,56.23
2023-03-03T05:11:33.069Z,55.74
2023-03-03T05:14:03.442Z,55.42
2023-03-03T05:16:32.006Z,55.52
2023-03-03T05:19:00.885Z,55.49
2023-03-03T05:21:29.389Z,55.33
2023-03-03T05:23:58.849Z,55.76
2023-03-03T05:26:27.101Z,55.64
2023-03-03T05:28:55.306Z,55.76
2023-03-03T05:31:23.634Z,55.23
2023-03-03T05:33:51.688Z,55.61
2023-03-03T05:36:20.185Z,55.48
2023-03-03T05:38:48.242Z,55.83
2023-03-03T05:41:18.116Z,55.65
2023-03-03T05:43:46.373Z,55.67
2023-03-03T05:46:15.053Z,55.24
2023-03-03T05:48:43.787Z,55.46
2023-03-03T05:51:12.740Z,54.88
2023-03-03T05:53:41.652Z,55.20
2023-03-03T05:56:10.028Z,55.22
2023-03-03T05:58:39.763Z,55.07
2023-03-03T06:01:09.525Z,55.53
2023-03-03T06:03:37.681Z,55.88
2023-03-03T06:06:09.482Z,55.71
2023-03-03T06:08:37.986Z,55.57
2023-03-03T06:11:07.595Z,55.25
2023-03-03T06:13:36.455Z,55.29
2023-03-03T06:16:08.725Z,55.74
2023-03-03T06:18:37.216Z,56.07
2023-03-03T06:21:08.376Z,56.34
2023-03-03T06:23:37.123Z,56.00
2023-03-03T06:26:06.647Z,55.35
2023-03-03T06:28:34.956Z,55.21
2023-03-03T06:31:03.047Z,55.23
2023-03-03T06:33:32.720Z,55.56
2023-03-03T06:36:01.589Z,55.86
2023-03-03T06:38:30.849Z,56.24
2023-03-03T06:41:03.380Z,56.10
2023-03-03T06:43:33.005Z,56.04
2023-03-03T06:46:02.872Z,56.16
2023-03-03T06:48:34.632Z,56.17
2023-03-03T06:51:06.382Z,55.69
2023-03-03T06:53:36.001Z,56.16
2023-03-03T06:56:10.281Z,56.49
2023-03-03T06:58:38.735Z,56.05
2023-03-03T07:01:17.513Z,56.23
2023-03-03T07:03:48.356Z,56.05
2023-03-03T07:06:24.470Z,56.19
2023-03-03T07:08:53.750Z,55.79
2023-03-03T07:11:24.134Z,55.59
2023-03-03T07:13:56.759Z,55.99
2023-03-03T07:16:28.662Z,56.35
2023-03-03T07:19:02.252Z,56.74
2023-03-03T07:21:34.384Z,56.85
2023-03-03T07:24:15.414Z,56.75
2023-03-03T07:26:43.611Z,56.74
2023-03-03T07:29:23.482Z,56.89
2023-03-03T07:31:52.123Z,57.00
2023-03-03T07:34:24.552Z,57.17
2023-03-03T07:36:57.044Z,57.59
2023-03-03T07:39:32.130Z,57.62
2023-03-03T07:42:15.968Z,57.81
2023-03-03T07:44:46.000Z,57.79
2023-03-03T07:47:20.746Z,58.11
2023-03-03T07:49:52.197Z,58.43
2023-03-03T07:52:29.864Z,58.34
2023-03-03T07:55:00.419Z,58.46
2023-03-03T07:57:36.842Z,58.87
2023-03-03T08:00:51.420Z,58.81
2023-03-03T08:03:20.759Z,58.37
2023-03-03T08:05:52.910Z,58.62
2023-03-03T08:08:33.171Z,58.66
2023-03-03T08:11:03.097Z,58.96
2023-03-03T08:13:39.112Z,59.19
2023-03-03T08:16:26.684Z,59.42
2023-03-03T08:18:55.454Z,59.21
2023-03-03T08:21:27.290Z,60.12
2023-03-03T08:23:55.956Z,60.62
2023-03-03T08:26:27.644Z,60.91
2023-03-03T08:28:56.865Z,61.54
2023-03-03T08:31:39.620Z,61.22
2023-03-03T08:34:09.731Z,61.37
2023-03-03T08:36:39.949Z,61.62
2023-03-03T08:39:10.482Z,61.19
2023-03-03T08:41:39.255Z,61.36
2023-03-03T08:44:07.753Z,61.23
2023-03-03T08:46:36.291Z,61.69
2023-03-03T08:49:05.048Z,61.52
2023-03-03T08:51:34.269Z,61.90
2023-03-03T08:54:05.146Z,62.10
2023-03-03T08:56:33.885Z,61.90
2023-03-03T08:59:03.165Z,61.77
2023-03-03T09:01:32.953Z,61.89
2023-03-03T09:04:01.456Z,61.56
2023-03-03T09:06:30.528Z,61.31
2023-03-03T09:08:58.972Z,61.79
2023-03-03T09:11:31.066Z,61.69
2023-03-03T09:14:07.777Z,61.63
2023-03-03T09:16:40.082Z,61.84
2023-03-03T09:19:23.676Z,61.80
2023-03-03T09:21:55.055Z,61.57
2023-03-03T09:24:29.640Z,61.77
2023-03-03T09:27:00.205Z,61.90
2023-03-03T09:29:30.656Z,62.43
2023-03-03T09:32:02.374Z,63.04
2023-03-03T09:34:40.848Z,62.88
2023-03-03T09:37:23.685Z,63.61
2023-03-03T09:39:55.505Z,63.12
2023-03-03T09:42:57.566Z,63.08
2023-03-03T09:45:41.457Z,63.13
2023-03-03T09:48:32.120Z,63.87
2023-03-03T09:51:23.009Z,63.84
2023-03-03T09:54:17.041Z,63.66
2023-03-03T09:56:53.380Z,63.78
2023-03-03T09:59:37.821Z,63.68
2023-03-03T10:02:28.625Z,63.35
2023-03-03T10:05:21.216Z,63.29
2023-03-03T10:08:04.961Z,64.00
2023-03-03T10:10:58.158Z,64.50
2023-03-03T10:13:44.801Z,64.38
2023-03-03T10:16:32.465Z,64.47
2023-03-03T10:19:04.800Z,64.44
2023-03-03T10:21:40.932Z,63.96
2023-03-03T10:24:22.620Z,63.78
2023-03-03T10:27:13.953Z,64.07
2023-03-03T10:29:59.613Z,63.97
2023-03-03T10:32:42.161Z,63.56
2023-03-03T10:35:56.932Z,62.66
2023-03-03T10:38:46.420Z,62.54
2023-03-03T10:41:42.212Z,62.07
2023-03-03T10:44:28.913Z,61.75
2023-03-03T10:47:23.120Z,60.93
2023-03-03T10:50:07.473Z,59.62
2023-03-03T10:52:46.482Z,57.86
2023-03-03T10:55:39.881Z,56.09
2023-03-03T10:58:25.575Z,53.80
2023-03-03T11:01:05.343Z,54.12
2023-03-03T11:04:12.568Z,53.08
2023-03-03T11:06:51.967Z,51.43
2023-03-03T11:09:48.362Z,51.78
2023-03-03T11:12:31.689Z,51.12
2023-03-03T11:15:21.697Z,51.46
2023-03-03T11:18:04.788Z,51.63
2023-03-03T11:20:44.841Z,52.02
2023-03-03T11:23:32.496Z,52.47
2023-03-03T11:26:11.307Z,52.89
2023-03-03T11:29:01.261Z,52.95
2023-03-03T11:31:38.193Z,52.81
2023-03-03T11:34:19.144Z,52.52
2023-03-03T11:36:56.091Z,51.66
2023-03-03T11:39:29.523Z,51.46
2023-03-03T11:42:08.259Z,50.88
2023-03-03T11:44:42.819Z,50.96
2023-03-03T11:47:21.345Z,50.01
2023-03-03T11:49:56.477Z,49.58
2023-03-03T11:52:33.729Z,49.91
2023-03-03T11:55:07.299Z,50.46
2023-03-03T11:57:42.640Z,50.77
2023-03-03T12:00:25.611Z,50.75
2023-03-03T12:03:11.049Z,49.14
2023-03-03T12:05:47.894Z,48.86
2023-03-03T12:08:38.042Z,49.29
2023-03-03T12:11:18.155Z,49.49
2023-03-03T12:13:59.349Z,49.79
2023-03-03T12:16:41.942Z,49.48
2023-03-03T12:19:32.963Z,49.68
2023-03-03T12:22:18.316Z,49.97
2023-03-03T12:25:21.434Z,50.25
2023-03-03T12:27:59.640Z,49.58
2023-03-03T12:30:53.382Z,50.20
2023-03-03T12:33:33.113Z,50.33
2023-03-03T12:36:13.132Z,50.45
2023-03-03T12:38:51.919Z,51.14
2023-03-03T12:41:25.308Z,50.60
2023-03-03T12:44:05.404Z,50.03
2023-03-03T12:46:45.761Z,50.40
2023-03-03T12:49:14.795Z,50.39
2023-03-03T12:51:57.501Z,50.36
2023-03-03T12:54:56.502Z,50.04
2023-03-03T12:57:37.400Z,50.29
2023-03-03T13:00:26.271Z,49.33
2023-03-03T13:03:03.978Z,48.90
2023-03-03T13:05:45.781Z,48.84
2023-03-03T13:08:37.398Z,48.65
2023-03-03T13:11:24.529Z,49.25
2023-03-03T13:13:59.415Z,49.52
2023-03-03T13:16:41.616Z,50.35
2023-03-03T13:19:14.595Z,50.92
2023-03-03T13:21:48.886Z,50.56
2023-03-03T13:24:22.957Z,51.38
2023-03-03T13:26:56.864Z,51.50
2023-03-03T13:29:29.860Z,51.47
2023-03-03T13:32:06.134Z,51.87
2023-03-03T13:34:41.717Z,52.20
2023-03-03T13:37:20.724Z,52.28
2023-03-03T13:39:58.993Z,51.93
2023-03-03T13:42:39.336Z,52.35
2023-03-03T13:45:18.022Z,52.35
2023-03-03T13:47:57.562Z,52.64
2023-03-03T13:50:33.315Z,52.82
2023-03-03T13:53:37.322Z,52.31
2023-03-03T13:56:12.389Z,52.04
2023-03-03T13:58:46.824Z,51.75
2023-03-03T14:01:23.464Z,52.24
2023-03-03T14:04:12.815Z,51.55
2023-03-03T14:06:49.324Z,51.97
2023-03-03T14:09:36.491Z,51.64
2023-03-03T14:12:14.966Z,50.82
2023-03-03T14:14:53.623Z,51.09
2023-03-03T14:17:32.163Z,51.81
2023-03-03T14:20:15.450Z,52.71
2023-03-03T14:22:52.392Z,52.50
2023-03-03T14:25:22.139Z,53.32
2023-03-03T14:28:13.039Z,53.34
2023-03-03T14:30:44.668Z,53.60
2023-03-03T14:33:37.592Z,53.61
2023-03-03T14:36:13.778Z,53.77
2023-03-03T14:38:46.958Z,53.42
2023-03-03T14:41:24.479Z,53.58
2023-03-03T14:44:01.902Z,53.43
2023-03-03T14:46:41.984Z,53.88
2023-03-03T14:49:18.427Z,54.12
2023-03-03T14:51:50.024Z,53.70
2023-03-03T14:54:26.836Z,54.55
2023-03-03T14:57:01.650Z,54.65
2023-03-03T14:59:31.932Z,54.36
2023-03-03T15:02:36.156Z,54.12
2023-03-03T15:05:23.399Z,54.77
2023-03-03T15:07:56.614Z,54.41
2023-03-03T15:10:35.140Z,54.14
2023-03-03T15:13:41.193Z,54.04
2023-03-03T15:16:19.303Z,53.87
2023-03-03T15:19:14.644Z,54.20
2023-03-03T15:21:57.254Z,55.05
2023-03-03T15:24:36.809Z,54.91
2023-03-03T15:27:14.486Z,54.81
2023-03-03T15:29:58.580Z,55.40
2023-03-03T15:32:35.118Z,54.71
2023-03-03T15:35:18.801Z,55.19
2023-03-03T15:37:56.666Z,55.76
2023-03-03T15:40:33.421Z,55.40
2023-03-03T15:43:22.688Z,56.02
2023-03-03T15:46:03.931Z,55.40
2023-03-03T15:48:56.750Z,55.27
2023-03-03T15:52:00.952Z,56.10
2023-03-03T15:54:45.540Z,55.89
2023-03-03T15:57:24.395Z,56.03
2023-03-03T16:00:16.931Z,56.41
2023-03-03T16:02:58.702Z,56.72
2023-03-03T16:05:34.730Z,56.73
2023-03-03T16:08:14.826Z,56.65
2023-03-03T16:10:56.784Z,57.22
2023-03-03T16:13:49.974Z,57.94
2023-03-03T16:16:32.566Z,57.51
2023-03-03T16:19:19.753Z,57.68
2023-03-03T16:22:14.420Z,57.73
2023-03-03T16:24:58.539Z,58.22
2023-03-03T16:27:35.558Z,57.53
2023-03-03T16:30:26.633Z,57.86
2023-03-03T16:33:13.065Z,57.47
2023-03-03T16:35:52.716Z,57.39
2023-03-03T16:38:30.102Z,57.15
2023-03-03T16:41:04.608Z,57.39
2023-03-03T16:43:42.032Z,58.04
2023-03-03T16:46:24.817Z,58.34
2023-03-03T16:48:58.890Z,58.28
2023-03-03T16:51:40.379Z,58.44
2023-03-03T16:54:12.480Z,58.18
2023-03-03T16:56:45.675Z,58.24
2023-03-03T16:59:33.571Z,58.34
2023-03-03T17:02:15.663Z,58.00
2023-03-03T17:04:48.809Z,57.58
2023-03-03T17:07:34.255Z,57.25
2023-03-03T17:10:23.260Z,57.08
2023-03-03T17:13:08.684Z,56.77
2023-03-03T17:15:49.894Z,56.92
2023-03-03T17:18:33.699Z,56.86
2023-03-03T17:21:10.015Z,56.62
2023-03-03T17:23:53.062Z,56.37
2023-03-03T17:26:36.049Z,56.83
2023-03-03T17:29:23.922Z,56.67
2023-03-03T17:31:59.131Z,56.98
2023-03-03T17:34:42.160Z,57.17
2023-03-03T17:37:23.940Z,56.94
2023-03-03T17:40:06.315Z,56.79
2023-03-03T17:42:43.069Z,57.01
2023-03-03T17:45:14.849Z,57.57
2023-03-03T17:48:10.243Z,57.67
2023-03-03T17:51:04.157Z,57.65
2023-03-03T17:53:55.736Z,57.64
2023-03-03T17:56:29.616Z,57.70
2023-03-03T17:59:50.084Z,57.33
2023-03-03T18:02:59.858Z,57.25
2023-03-03T18:05:54.833Z,57.55
2023-03-03T18:08:49.203Z,57.25
2023-03-03T18:11:43.212Z,57.05
2023-03-03T18:14:42.769Z,57.31
2023-03-03T18:17:38.522Z,57.69
2023-03-03T18:20:28.404Z,57.55
2023-03-03T18:23:28.136Z,56.89
2023-03-03T18:25:59.905Z,57.10
2023-03-03T18:28:52.677Z,57.01
2023-03-03T18:31:28.404Z,56.77
2023-03-03T18:34:05.798Z,57.29
2023-03-03T18:36:56.127Z,57.10
2023-03-03T18:39:51.672Z,57.36
2023-03-03T18:42:40.404Z,57.64
2023-03-03T18:45:50.873Z,57.24
2023-03-03T18:48:20.491Z,56.88
2023-03-03T18:50:56.120Z,57.13
2023-03-03T18:53:40.661Z,57.70
2023-03-03T18:56:16.413Z,57.92
2023-03-03T18:58:49.579Z,57.03
2023-03-03T19:01:45.016Z,57.81
2023-03-03T19:04:28.115Z,57.87
2023-03-03T19:07:28.529Z,57.51
2023-03-03T19:10:08.967Z,57.78
2023-03-03T19:13:03.183Z,57.25
2023-03-03T19:16:07.348Z,57.15
2023-03-03T19:18:58.201Z,57.35
2023-03-03T19:21:32.809Z,57.19
2023-03-03T19:24:05.913Z,56.86
2023-03-03T19:27:07.566Z,56.86
2023-03-03T19:30:07.626Z,56.71
2023-03-03T19:33:01.653Z,56.48
2023-03-03T19:35:48.985Z,56.86
2023-03-03T19:38:40.924Z,57.34
2023-03-03T19:41:26.924Z,57.12
2023-03-03T19:44:13.969Z,57.45
2023-03-03T19:47:03.703Z,57.23
2023-03-03T19:50:03.910Z,57.30
2023-03-03T19:52:42.787Z,57.69
2023-03-03T19:55:31.606Z,57.55
2023-03-03T19:58:19.518Z,57.34
2023-03-03T20:00:53.302Z,57.50
2023-03-03T20:03:45.009Z,57.41
2023-03-03T20:06:28.340Z,57.43
2023-03-03T20:09:05.660Z,57.48
2023-03-03T20:11:54.853Z,57.75
2023-03-03T20:14:41.194Z,57.61
2023-03-03T20:17:40.462Z,57.66
2023-03-03T20:20:48.417Z,57.64
2023-03-03T20:23:26.131Z,57.40
2023-03-03T20:26:02.617Z,57.79
2023-03-03T20:28:51.780Z,57.44
2023-03-03T20:31:31.843Z,57.58
2023-03-03T20:34:13.902Z,57.66
2023-03-03T20:37:03.806Z,57.72
2023-03-03T20:39:59.366Z,57.54
2023-03-03T20:42:46.285Z,57.52
2023-03-03T20:45:40.220Z,57.69
2023-03-03T20:48:26.194Z,58.00
2023-03-03T20:51:17.796Z,57.76
2023-03-03T20:53:59.168Z,57.94
2023-03-03T20:56:42.262Z,57.96
2023-03-03T20:59:34.252Z,58.04
2023-03-03T21:02:22.379Z,58.25
2023-03-03T21:05:12.241Z,58.42
2023-03-03T21:08:06.175Z,57.83
2023-03-03T21:10:42.586Z,57.84
2023-03-03T21:13:33.282Z,57.76
2023-03-03T21:16:10.367Z,57.88
2023-03-03T21:18:42.347Z,57.88
2023-03-03T21:21:14.293Z,57.41
2023-03-03T21:23:45.372Z,57.42
2023-03-03T21:26:17.620Z,57.07
2023-03-03T21:29:03.753Z,56.88
2023-03-03T21:31:45.913Z,57.33
2023-03-03T21:34:24.653Z,57.54
2023-03-03T21:36:59.524Z,57.38
2023-03-03T21:39:32.373Z,57.77
2023-03-03T21:42:07.775Z,57.63
2023-03-03T21:44:41.248Z,57.97
2023-03-03T21:47:17.357Z,57.67
2023-03-03T21:49:52.031Z,57.70
2023-03-03T21:52:24.827Z,57.44
2023-03-03T21:54:55.229Z,57.51
2023-03-03T21:57:28.851Z,57.39
2023-03-03T22:00:02.122Z,57.11
2023-03-03T22:02:33.089Z,57.23
2023-03-03T22:05:08.390Z,57.37
2023-03-03T22:07:42.829Z,57.00
2023-03-03T22:10:18.821Z,56.93
2023-03-03T22:12:51.827Z,57.22
2023-03-03T22:15:26.853Z,56.72
2023-03-03T22:17:57.830Z,57.16
2023-03-03T22:20:33.435Z,56.83
2023-03-03T22:23:04.834Z,56.93
2023-03-03T22:25:44.741Z,56.63
2023-03-03T22:28:21.743Z,56.43
2023-03-03T22:30:53.786Z,56.94
2023-03-03T22:33:22.484Z,56.65
2023-03-03T22:35:51.218Z,56.16
2023-03-03T22:38:19.872Z,56.28
2023-03-03T22:40:48.725Z,56.23
2023-03-03T22:43:18.632Z,56.79
2023-03-03T22:45:48.340Z,56.36
2023-03-03T22:48:16.858Z,56.10
2023-03-03T22:50:47.761Z,56.06
2023-03-03T22:53:16.662Z,55.81
2023-03-03T22:55:46.230Z,55.53
2023-03-03T22:58:15.589Z,55.31
2023-03-03T23:00:46.774Z,54.32
2023-03-03T23:03:16.955Z,54.20
2023-03-03T23:05:45.841Z,54.17
2023-03-03T23:08:16.900Z,54.25
2023-03-03T23:10:46.029Z,54.27
2023-03-03T23:13:15.148Z,54.37
2023-03-03T23:15:44.797Z,54.34
2023-03-03T23:18:15.156Z,54.36
2023-03-03T23:20:46.206Z,54.53
2023-03-03T23:23:14.435Z,55.11
2023-03-03T23:25:43.108Z,54.70
2023-03-03T23:28:15.675Z,54.84
2023-03-03T23:30:46.258Z,54.84
2023-03-03T23:33:16.079Z,54.98
2023-03-03T23:35:46.360Z,54.87
2023-03-03T23:38:17.687Z,55.33
2023-03-03T23:40:47.764Z,54.97
2023-03-03T23:43:16.329Z,54.71
2023-03-03T23:45:45.064Z,55.05
2023-03-03T23:48:15.247Z,55.03
2023-03-03T23:50:44.597Z,55.01
2023-03-03T23:53:13.086Z,55.35
2023-03-03T23:55:41.532Z,55.17
2023-03-03T23:58:13.166Z,55.17
